Terminal Aerodrome Forecast
Issued by NWS

Home | Current Version | Previous Version | Text Only | Print | Product List | Glossary On
Versions: 1 2 3 4 5 6 7 8 9 10 11 12 13 14 15 16 17 18
000
FTUS44 KTSA 262300
TAFRVS
TAF
KRVS 262337Z 2700/2724 VRB03KT P6SM SKC
     FM270400 VRB05KT P6SM BKN100
     FM271200 02011KT P6SM SCT035 BKN100=

USA.gov is the U.S. government's official web portal to all federal, state and local government web resources and services.